Hico, Texas
Current Conditions -  °F | °C
As of 3:15 PM on Saturday 20 Dec 2014 (Local Time) from KSEP Reporting Station
Overcast Overcast  
Wind Chill: 47°   Ceiling: 2000
Heat Index: 47°   Visibility: 10mi
Dew Point: 40°   Wind: 0mph
Humidity: 78%   Direction: NA
Pressure: 30.18"   Gusts: NA
Location:  31.98°N, 98.03°W
Report Text: KSEP 202115Z AUTO 00000KT 10SM OVC020 08/05 A3018 RMK AO2 T00830046
Loading
Personal Weather Stations






























Interactive Weather Map New forecast layout! Learn more

10-Day Weather Forecast

Advertisements
Track Severe Weather on mobile